sensor_id;sensor_type;location;lat;lon;timestamp;P1;durP1;ratioP1;P2;durP2;ratioP2
64395;SDS011;50717;53.360;6.290;2022-07-18T00:02:21;10.93;;;7.03;;
64395;SDS011;50717;53.360;6.290;2022-07-18T00:04:46;9.48;;;6.90;;
64395;SDS011;50717;53.360;6.290;2022-07-18T00:07:12;11.40;;;7.00;;
64395;SDS011;50717;53.360;6.290;2022-07-18T00:09:39;10.15;;;6.25;;
64395;SDS011;50717;53.360;6.290;2022-07-18T00:12:06;8.55;;;5.82;;
64395;SDS011;50717;53.360;6.290;2022-07-18T00:14:33;11.70;;;6.60;;
64395;SDS011;50717;53.360;6.290;2022-07-18T00:16:59;11.25;;;6.82;;
64395;SDS011;50717;53.360;6.290;2022-07-18T00:19:26;12.70;;;6.65;;
64395;SDS011;50717;53.360;6.290;2022-07-18T00:21:52;7.07;;;5.80;;
64395;SDS011;50717;53.360;6.290;2022-07-18T00:24:18;6.90;;;5.55;;
64395;SDS011;50717;53.360;6.290;2022-07-18T00:26:43;8.88;;;6.00;;
64395;SDS011;50717;53.360;6.290;2022-07-18T00:29:09;7.68;;;5.85;;
64395;SDS011;50717;53.360;6.290;2022-07-18T00:31:35;7.45;;;5.72;;
64395;SDS011;50717;53.360;6.290;2022-07-18T00:34:01;8.52;;;6.40;;
64395;SDS011;50717;53.360;6.290;2022-07-18T00:36:27;9.27;;;5.85;;
64395;SDS011;50717;53.360;6.290;2022-07-18T00:38:53;7.90;;;6.07;;
64395;SDS011;50717;53.360;6.290;2022-07-18T00:41:19;10.55;;;6.28;;
64395;SDS011;50717;53.360;6.290;2022-07-18T00:43:45;10.85;;;6.80;;
64395;SDS011;50717;53.360;6.290;2022-07-18T00:46:10;9.85;;;6.53;;
64395;SDS011;50717;53.360;6.290;2022-07-18T00:51:06;10.50;;;7.03;;
64395;SDS011;50717;53.360;6.290;2022-07-18T00:53:32;8.88;;;6.88;;
64395;SDS011;50717;53.360;6.290;2022-07-18T00:55:58;10.80;;;6.80;;
64395;SDS011;50717;53.360;6.290;2022-07-18T00:58:26;10.82;;;6.93;;
64395;SDS011;50717;53.360;6.290;2022-07-18T01:00:52;10.63;;;7.05;;
64395;SDS011;50717;53.360;6.290;2022-07-18T01:03:36;9.85;;;6.40;;
64395;SDS011;50717;53.360;6.290;2022-07-18T01:08:27;15.05;;;7.57;;
64395;SDS011;50717;53.360;6.290;2022-07-18T01:10:54;9.02;;;7.13;;
64395;SDS011;50717;53.360;6.290;2022-07-18T01:13:20;9.38;;;6.47;;
64395;SDS011;50717;53.360;6.290;2022-07-18T01:15:46;9.88;;;6.80;;
64395;SDS011;50717;53.360;6.290;2022-07-18T01:18:12;9.68;;;6.30;;
64395;SDS011;50717;53.360;6.290;2022-07-18T01:23:03;11.30;;;6.80;;
64395;SDS011;50717;53.360;6.290;2022-07-18T01:25:29;9.98;;;6.93;;
64395;SDS011;50717;53.360;6.290;2022-07-18T01:27:55;12.05;;;7.40;;
64395;SDS011;50717;53.360;6.290;2022-07-18T01:30:22;11.18;;;7.68;;
64395;SDS011;50717;53.360;6.290;2022-07-18T01:32:55;11.02;;;8.10;;
64395;SDS011;50717;53.360;6.290;2022-07-18T01:35:25;9.63;;;7.47;;
64395;SDS011;50717;53.360;6.290;2022-07-18T01:37:53;10.27;;;7.47;;
64395;SDS011;50717;53.360;6.290;2022-07-18T01:40:20;12.80;;;7.57;;
64395;SDS011;50717;53.360;6.290;2022-07-18T01:42:47;10.98;;;7.90;;
64395;SDS011;50717;53.360;6.290;2022-07-18T01:45:12;11.48;;;7.65;;
64395;SDS011;50717;53.360;6.290;2022-07-18T01:47:39;11.30;;;7.40;;
64395;SDS011;50717;53.360;6.290;2022-07-18T01:50:05;10.98;;;7.40;;
64395;SDS011;50717;53.360;6.290;2022-07-18T01:52:32;9.88;;;6.90;;
64395;SDS011;50717;53.360;6.290;2022-07-18T01:54:57;11.63;;;7.57;;
64395;SDS011;50717;53.360;6.290;2022-07-18T01:59:49;12.85;;;7.43;;
64395;SDS011;50717;53.360;6.290;2022-07-18T02:02:15;12.07;;;7.00;;
64395;SDS011;50717;53.360;6.290;2022-07-18T02:07:28;12.23;;;6.60;;
64395;SDS011;50717;53.360;6.290;2022-07-18T02:09:56;8.93;;;6.85;;
64395;SDS011;50717;53.360;6.290;2022-07-18T02:12:23;11.23;;;7.47;;
64395;SDS011;50717;53.360;6.290;2022-07-18T02:14:49;11.57;;;7.38;;
64395;SDS011;50717;53.360;6.290;2022-07-18T02:17:16;11.43;;;7.20;;
64395;SDS011;50717;53.360;6.290;2022-07-18T02:19:43;12.23;;;7.03;;
64395;SDS011;50717;53.360;6.290;2022-07-18T02:22:08;12.32;;;7.25;;
64395;SDS011;50717;53.360;6.290;2022-07-18T02:26:59;14.85;;;8.07;;
64395;SDS011;50717;53.360;6.290;2022-07-18T02:31:51;14.65;;;7.07;;
64395;SDS011;50717;53.360;6.290;2022-07-18T02:36:42;16.63;;;7.38;;
64395;SDS011;50717;53.360;6.290;2022-07-18T02:41:34;12.85;;;7.65;;
64395;SDS011;50717;53.360;6.290;2022-07-18T02:46:26;16.90;;;7.50;;
64395;SDS011;50717;53.360;6.290;2022-07-18T02:51:17;17.42;;;7.85;;
64395;SDS011;50717;53.360;6.290;2022-07-18T02:53:43;13.80;;;7.10;;
64395;SDS011;50717;53.360;6.290;2022-07-18T02:58:34;14.88;;;7.28;;
64395;SDS011;50717;53.360;6.290;2022-07-18T03:03:26;14.00;;;7.47;;
64395;SDS011;50717;53.360;6.290;2022-07-18T03:08:17;11.63;;;7.32;;
64395;SDS011;50717;53.360;6.290;2022-07-18T03:13:08;16.50;;;6.93;;
64395;SDS011;50717;53.360;6.290;2022-07-18T03:15:35;13.23;;;7.28;;
64395;SDS011;50717;53.360;6.290;2022-07-18T03:18:01;12.93;;;7.57;;
64395;SDS011;50717;53.360;6.290;2022-07-18T03:20:28;13.48;;;7.00;;
64395;SDS011;50717;53.360;6.290;2022-07-18T03:25:19;9.18;;;6.22;;
64395;SDS011;50717;53.360;6.290;2022-07-18T03:30:11;12.75;;;6.75;;
64395;SDS011;50717;53.360;6.290;2022-07-18T03:32:37;12.15;;;6.95;;
64395;SDS011;50717;53.360;6.290;2022-07-18T03:37:28;11.73;;;7.75;;
64395;SDS011;50717;53.360;6.290;2022-07-18T03:42:20;12.60;;;7.35;;
64395;SDS011;50717;53.360;6.290;2022-07-18T03:47:11;11.63;;;6.93;;
64395;SDS011;50717;53.360;6.290;2022-07-18T03:52:02;9.95;;;6.80;;
64395;SDS011;50717;53.360;6.290;2022-07-18T03:56:54;13.85;;;6.95;;
64395;SDS011;50717;53.360;6.290;2022-07-18T04:01:45;13.05;;;7.40;;
64395;SDS011;50717;53.360;6.290;2022-07-18T04:06:36;14.07;;;7.28;;
64395;SDS011;50717;53.360;6.290;2022-07-18T04:11:28;10.95;;;7.07;;
64395;SDS011;50717;53.360;6.290;2022-07-18T04:16:19;15.15;;;7.70;;
64395;SDS011;50717;53.360;6.290;2022-07-18T04:18:45;8.65;;;6.38;;
64395;SDS011;50717;53.360;6.290;2022-07-18T04:21:11;10.73;;;6.88;;
64395;SDS011;50717;53.360;6.290;2022-07-18T04:26:04;11.80;;;7.17;;
64395;SDS011;50717;53.360;6.290;2022-07-18T04:28:30;11.30;;;7.03;;
64395;SDS011;50717;53.360;6.290;2022-07-18T04:33:21;12.63;;;6.60;;
64395;SDS011;50717;53.360;6.290;2022-07-18T04:35:47;11.15;;;6.95;;
64395;SDS011;50717;53.360;6.290;2022-07-18T04:38:14;12.15;;;6.80;;
64395;SDS011;50717;53.360;6.290;2022-07-18T04:40:40;11.93;;;6.93;;
64395;SDS011;50717;53.360;6.290;2022-07-18T04:45:33;11.98;;;6.18;;
64395;SDS011;50717;53.360;6.290;2022-07-18T04:48:00;13.45;;;7.10;;
64395;SDS011;50717;53.360;6.290;2022-07-18T04:50:26;10.48;;;6.70;;
64395;SDS011;50717;53.360;6.290;2022-07-18T04:52:55;12.50;;;6.55;;
64395;SDS011;50717;53.360;6.290;2022-07-18T04:55:21;11.02;;;7.25;;
64395;SDS011;50717;53.360;6.290;2022-07-18T04:57:48;11.90;;;6.40;;
64395;SDS011;50717;53.360;6.290;2022-07-18T05:00:16;10.43;;;6.55;;
64395;SDS011;50717;53.360;6.290;2022-07-18T05:02:44;12.68;;;6.63;;
64395;SDS011;50717;53.360;6.290;2022-07-18T05:05:12;9.00;;;6.22;;
64395;SDS011;50717;53.360;6.290;2022-07-18T05:07:39;13.13;;;6.85;;
64395;SDS011;50717;53.360;6.290;2022-07-18T05:10:06;10.02;;;6.10;;
64395;SDS011;50717;53.360;6.290;2022-07-18T05:12:34;9.18;;;5.95;;
64395;SDS011;50717;53.360;6.290;2022-07-18T05:15:00;11.55;;;5.90;;
64395;SDS011;50717;53.360;6.290;2022-07-18T05:19:52;10.48;;;5.60;;
64395;SDS011;50717;53.360;6.290;2022-07-18T05:24:43;9.50;;;5.90;;
64395;SDS011;50717;53.360;6.290;2022-07-18T05:29:34;12.48;;;5.57;;
64395;SDS011;50717;53.360;6.290;2022-07-18T05:34:26;8.95;;;5.28;;
64395;SDS011;50717;53.360;6.290;2022-07-18T05:39:18;7.75;;;4.90;;
64395;SDS011;50717;53.360;6.290;2022-07-18T05:44:09;8.80;;;5.28;;
64395;SDS011;50717;53.360;6.290;2022-07-18T05:49:00;11.15;;;5.10;;
64395;SDS011;50717;53.360;6.290;2022-07-18T05:51:26;8.07;;;4.78;;
64395;SDS011;50717;53.360;6.290;2022-07-18T05:56:17;7.28;;;4.60;;
64395;SDS011;50717;53.360;6.290;2022-07-18T06:01:08;7.38;;;4.38;;
64395;SDS011;50717;53.360;6.290;2022-07-18T06:05:59;7.70;;;4.65;;
64395;SDS011;50717;53.360;6.290;2022-07-18T06:08:25;6.55;;;4.53;;
64395;SDS011;50717;53.360;6.290;2022-07-18T06:13:16;7.85;;;4.40;;
64395;SDS011;50717;53.360;6.290;2022-07-18T06:18:07;9.18;;;4.93;;
64395;SDS011;50717;53.360;6.290;2022-07-18T06:20:33;8.48;;;4.90;;
64395;SDS011;50717;53.360;6.290;2022-07-18T06:22:59;11.02;;;5.13;;
64395;SDS011;50717;53.360;6.290;2022-07-18T06:25:24;8.07;;;4.90;;
64395;SDS011;50717;53.360;6.290;2022-07-18T06:27:50;7.20;;;4.75;;
64395;SDS011;50717;53.360;6.290;2022-07-18T06:30:16;10.75;;;4.68;;
64395;SDS011;50717;53.360;6.290;2022-07-18T06:32:41;8.82;;;5.18;;
64395;SDS011;50717;53.360;6.290;2022-07-18T06:35:08;8.63;;;5.30;;
64395;SDS011;50717;53.360;6.290;2022-07-18T06:37:34;10.15;;;4.93;;
64395;SDS011;50717;53.360;6.290;2022-07-18T06:40:00;9.27;;;4.63;;
64395;SDS011;50717;53.360;6.290;2022-07-18T06:42:25;8.30;;;5.00;;
64395;SDS011;50717;53.360;6.290;2022-07-18T06:44:51;5.97;;;4.47;;
64395;SDS011;50717;53.360;6.290;2022-07-18T06:47:17;7.72;;;4.70;;
64395;SDS011;50717;53.360;6.290;2022-07-18T06:49:42;7.78;;;4.93;;
64395;SDS011;50717;53.360;6.290;2022-07-18T06:52:08;13.70;;;4.90;;
64395;SDS011;50717;53.360;6.290;2022-07-18T06:54:37;9.82;;;4.43;;
64395;SDS011;50717;53.360;6.290;2022-07-18T06:57:04;7.68;;;4.85;;
64395;SDS011;50717;53.360;6.290;2022-07-18T07:05:11;7.72;;;3.90;;
64395;SDS011;50717;53.360;6.290;2022-07-18T07:07:38;8.50;;;4.28;;
64395;SDS011;50717;53.360;6.290;2022-07-18T07:10:04;8.25;;;4.35;;
64395;SDS011;50717;53.360;6.290;2022-07-18T07:12:30;7.35;;;4.25;;
64395;SDS011;50717;53.360;6.290;2022-07-18T07:15:03;7.55;;;4.40;;
64395;SDS011;50717;53.360;6.290;2022-07-18T07:17:29;8.30;;;4.70;;
64395;SDS011;50717;53.360;6.290;2022-07-18T07:19:57;7.25;;;4.20;;
64395;SDS011;50717;53.360;6.290;2022-07-18T07:22:23;6.53;;;4.05;;
64395;SDS011;50717;53.360;6.290;2022-07-18T07:24:49;5.53;;;4.00;;
64395;SDS011;50717;53.360;6.290;2022-07-18T07:27:14;6.35;;;4.03;;
64395;SDS011;50717;53.360;6.290;2022-07-18T07:29:40;10.68;;;4.07;;
64395;SDS011;50717;53.360;6.290;2022-07-18T07:32:06;7.05;;;3.90;;
64395;SDS011;50717;53.360;6.290;2022-07-18T07:34:31;9.75;;;3.53;;
64395;SDS011;50717;53.360;6.290;2022-07-18T07:36:57;4.82;;;3.20;;
64395;SDS011;50717;53.360;6.290;2022-07-18T07:39:23;6.88;;;3.15;;
64395;SDS011;50717;53.360;6.290;2022-07-18T07:41:49;7.80;;;3.92;;
64395;SDS011;50717;53.360;6.290;2022-07-18T07:44:15;5.47;;;3.28;;
64395;SDS011;50717;53.360;6.290;2022-07-18T07:46:41;9.35;;;3.35;;
64395;SDS011;50717;53.360;6.290;2022-07-18T07:49:07;7.82;;;3.05;;
64395;SDS011;50717;53.360;6.290;2022-07-18T07:51:32;6.47;;;3.10;;
64395;SDS011;50717;53.360;6.290;2022-07-18T07:53:58;7.57;;;3.10;;
64395;SDS011;50717;53.360;6.290;2022-07-18T07:56:23;5.80;;;2.90;;
64395;SDS011;50717;53.360;6.290;2022-07-18T07:58:49;3.95;;;3.03;;
64395;SDS011;50717;53.360;6.290;2022-07-18T08:01:15;5.10;;;3.38;;
64395;SDS011;50717;53.360;6.290;2022-07-18T08:03:44;6.80;;;3.10;;
64395;SDS011;50717;53.360;6.290;2022-07-18T08:06:11;8.57;;;3.20;;
64395;SDS011;50717;53.360;6.290;2022-07-18T08:08:37;6.63;;;2.78;;
64395;SDS011;50717;53.360;6.290;2022-07-18T08:11:02;9.32;;;3.17;;
64395;SDS011;50717;53.360;6.290;2022-07-18T08:13:28;6.75;;;2.85;;
64395;SDS011;50717;53.360;6.290;2022-07-18T08:15:54;3.90;;;2.65;;
64395;SDS011;50717;53.360;6.290;2022-07-18T08:18:19;9.10;;;3.17;;
64395;SDS011;50717;53.360;6.290;2022-07-18T08:20:45;6.28;;;2.40;;
64395;SDS011;50717;53.360;6.290;2022-07-18T08:23:11;7.18;;;2.55;;
64395;SDS011;50717;53.360;6.290;2022-07-18T08:25:38;5.57;;;2.45;;
64395;SDS011;50717;53.360;6.290;2022-07-18T08:28:05;6.45;;;2.70;;
64395;SDS011;50717;53.360;6.290;2022-07-18T08:30:32;5.22;;;2.30;;
64395;SDS011;50717;53.360;6.290;2022-07-18T08:32:58;5.47;;;2.15;;
64395;SDS011;50717;53.360;6.290;2022-07-18T08:35:26;5.93;;;2.10;;
64395;SDS011;50717;53.360;6.290;2022-07-18T08:37:52;4.22;;;2.15;;
64395;SDS011;50717;53.360;6.290;2022-07-18T08:40:18;6.18;;;2.20;;
64395;SDS011;50717;53.360;6.290;2022-07-18T08:42:44;5.22;;;2.08;;
64395;SDS011;50717;53.360;6.290;2022-07-18T08:45:10;6.38;;;2.15;;
64395;SDS011;50717;53.360;6.290;2022-07-18T08:47:35;5.40;;;2.08;;
64395;SDS011;50717;53.360;6.290;2022-07-18T08:50:02;3.40;;;2.08;;
64395;SDS011;50717;53.360;6.290;2022-07-18T08:52:29;4.97;;;2.45;;
64395;SDS011;50717;53.360;6.290;2022-07-18T08:54:55;6.70;;;2.47;;
64395;SDS011;50717;53.360;6.290;2022-07-18T08:57:21;6.85;;;2.13;;
64395;SDS011;50717;53.360;6.290;2022-07-18T08:59:48;7.07;;;2.42;;
64395;SDS011;50717;53.360;6.290;2022-07-18T09:02:14;6.05;;;2.00;;
64395;SDS011;50717;53.360;6.290;2022-07-18T09:04:40;7.72;;;2.45;;
64395;SDS011;50717;53.360;6.290;2022-07-18T09:07:07;3.10;;;2.05;;
64395;SDS011;50717;53.360;6.290;2022-07-18T09:09:34;7.43;;;2.30;;
64395;SDS011;50717;53.360;6.290;2022-07-18T09:12:02;5.05;;;1.90;;
64395;SDS011;50717;53.360;6.290;2022-07-18T09:17:05;6.75;;;2.10;;
64395;SDS011;50717;53.360;6.290;2022-07-18T09:19:33;4.47;;;1.60;;
64395;SDS011;50717;53.360;6.290;2022-07-18T09:24:57;4.65;;;1.75;;
64395;SDS011;50717;53.360;6.290;2022-07-18T09:32:37;4.28;;;1.77;;
64395;SDS011;50717;53.360;6.290;2022-07-18T09:35:05;4.95;;;1.83;;
64395;SDS011;50717;53.360;6.290;2022-07-18T09:37:38;7.50;;;2.53;;
64395;SDS011;50717;53.360;6.290;2022-07-18T09:40:17;7.78;;;2.00;;
64395;SDS011;50717;53.360;6.290;2022-07-18T09:42:48;5.45;;;1.90;;
64395;SDS011;50717;53.360;6.290;2022-07-18T09:45:16;6.15;;;2.15;;
64395;SDS011;50717;53.360;6.290;2022-07-18T09:47:54;5.88;;;1.90;;
64395;SDS011;50717;53.360;6.290;2022-07-18T09:53:16;7.05;;;2.10;;
64395;SDS011;50717;53.360;6.290;2022-07-18T09:58:10;6.47;;;2.38;;
64395;SDS011;50717;53.360;6.290;2022-07-18T10:00:36;4.85;;;2.35;;
64395;SDS011;50717;53.360;6.290;2022-07-18T10:03:04;5.63;;;2.30;;
64395;SDS011;50717;53.360;6.290;2022-07-18T10:05:32;6.72;;;2.25;;
64395;SDS011;50717;53.360;6.290;2022-07-18T10:08:00;4.15;;;1.98;;
64395;SDS011;50717;53.360;6.290;2022-07-18T10:10:28;4.55;;;2.20;;
64395;SDS011;50717;53.360;6.290;2022-07-18T10:12:56;7.35;;;2.35;;
64395;SDS011;50717;53.360;6.290;2022-07-18T10:15:24;8.02;;;2.53;;
64395;SDS011;50717;53.360;6.290;2022-07-18T10:17:52;6.95;;;2.35;;
64395;SDS011;50717;53.360;6.290;2022-07-18T10:20:24;6.25;;;2.63;;
64395;SDS011;50717;53.360;6.290;2022-07-18T10:22:57;15.70;;;2.97;;
64395;SDS011;50717;53.360;6.290;2022-07-18T10:25:26;6.03;;;2.10;;
64395;SDS011;50717;53.360;6.290;2022-07-18T10:28:01;4.70;;;2.30;;
64395;SDS011;50717;53.360;6.290;2022-07-18T10:30:31;3.95;;;2.30;;
64395;SDS011;50717;53.360;6.290;2022-07-18T10:32:59;5.75;;;2.53;;
64395;SDS011;50717;53.360;6.290;2022-07-18T10:38:29;5.40;;;2.75;;
64395;SDS011;50717;53.360;6.290;2022-07-18T10:43:39;8.30;;;2.80;;
64395;SDS011;50717;53.360;6.290;2022-07-18T10:46:07;6.90;;;2.75;;
64395;SDS011;50717;53.360;6.290;2022-07-18T10:51:00;7.55;;;3.70;;
64395;SDS011;50717;53.360;6.290;2022-07-18T10:56:18;5.88;;;3.08;;
64395;SDS011;50717;53.360;6.290;2022-07-18T10:58:56;8.63;;;3.40;;
64395;SDS011;50717;53.360;6.290;2022-07-18T11:01:23;6.75;;;3.83;;
64395;SDS011;50717;53.360;6.290;2022-07-18T11:03:50;7.20;;;4.07;;
64395;SDS011;50717;53.360;6.290;2022-07-18T11:23:01;7.40;;;4.65;;
64395;SDS011;50717;53.360;6.290;2022-07-18T11:25:50;8.23;;;4.75;;
64395;SDS011;50717;53.360;6.290;2022-07-18T11:28:17;7.70;;;4.88;;
64395;SDS011;50717;53.360;6.290;2022-07-18T11:30:58;7.07;;;3.67;;
64395;SDS011;50717;53.360;6.290;2022-07-18T11:33:26;7.60;;;4.10;;
64395;SDS011;50717;53.360;6.290;2022-07-18T11:36:03;8.35;;;4.60;;
64395;SDS011;50717;53.360;6.290;2022-07-18T11:38:34;6.45;;;4.40;;
64395;SDS011;50717;53.360;6.290;2022-07-18T11:41:01;13.35;;;4.75;;
64395;SDS011;50717;53.360;6.290;2022-07-18T11:43:28;8.23;;;4.28;;
64395;SDS011;50717;53.360;6.290;2022-07-18T11:46:01;8.88;;;4.40;;
64395;SDS011;50717;53.360;6.290;2022-07-18T11:48:35;7.57;;;3.90;;
64395;SDS011;50717;53.360;6.290;2022-07-18T11:51:02;6.57;;;3.53;;
64395;SDS011;50717;53.360;6.290;2022-07-18T11:53:33;7.20;;;4.30;;
64395;SDS011;50717;53.360;6.290;2022-07-18T11:56:02;8.05;;;4.38;;
64395;SDS011;50717;53.360;6.290;2022-07-18T11:58:34;8.13;;;4.90;;
64395;SDS011;50717;53.360;6.290;2022-07-18T12:01:04;10.45;;;5.18;;
64395;SDS011;50717;53.360;6.290;2022-07-18T12:03:30;7.95;;;4.18;;
64395;SDS011;50717;53.360;6.290;2022-07-18T12:06:08;5.35;;;3.63;;
64395;SDS011;50717;53.360;6.290;2022-07-18T12:08:45;7.65;;;3.85;;
64395;SDS011;50717;53.360;6.290;2022-07-18T12:13:55;10.20;;;3.83;;
64395;SDS011;50717;53.360;6.290;2022-07-18T12:16:35;8.20;;;3.75;;
64395;SDS011;50717;53.360;6.290;2022-07-18T12:19:10;6.65;;;4.32;;
64395;SDS011;50717;53.360;6.290;2022-07-18T12:21:38;9.48;;;4.38;;
64395;SDS011;50717;53.360;6.290;2022-07-18T12:24:16;4.80;;;3.65;;
64395;SDS011;50717;53.360;6.290;2022-07-18T12:30:08;6.28;;;4.18;;
64395;SDS011;50717;53.360;6.290;2022-07-18T12:35:22;5.82;;;4.22;;
64395;SDS011;50717;53.360;6.290;2022-07-18T12:37:53;6.60;;;4.20;;
64395;SDS011;50717;53.360;6.290;2022-07-18T12:40:22;5.97;;;3.97;;
64395;SDS011;50717;53.360;6.290;2022-07-18T12:42:49;6.82;;;3.70;;
64395;SDS011;50717;53.360;6.290;2022-07-18T12:45:14;10.65;;;4.35;;
64395;SDS011;50717;53.360;6.290;2022-07-18T12:47:41;8.43;;;4.10;;
64395;SDS011;50717;53.360;6.290;2022-07-18T12:50:07;7.53;;;4.20;;
64395;SDS011;50717;53.360;6.290;2022-07-18T12:52:33;6.63;;;3.67;;
64395;SDS011;50717;53.360;6.290;2022-07-18T12:54:59;7.40;;;3.75;;
64395;SDS011;50717;53.360;6.290;2022-07-18T12:57:25;10.18;;;4.10;;
64395;SDS011;50717;53.360;6.290;2022-07-18T12:59:51;6.95;;;4.20;;
64395;SDS011;50717;53.360;6.290;2022-07-18T13:02:17;7.38;;;3.95;;
64395;SDS011;50717;53.360;6.290;2022-07-18T13:04:43;6.60;;;4.72;;
64395;SDS011;50717;53.360;6.290;2022-07-18T13:07:10;8.30;;;3.95;;
64395;SDS011;50717;53.360;6.290;2022-07-18T13:09:36;6.90;;;4.18;;
64395;SDS011;50717;53.360;6.290;2022-07-18T13:12:02;5.13;;;4.40;;
64395;SDS011;50717;53.360;6.290;2022-07-18T13:14:28;6.60;;;4.88;;
64395;SDS011;50717;53.360;6.290;2022-07-18T13:16:54;5.88;;;4.75;;
64395;SDS011;50717;53.360;6.290;2022-07-18T13:19:20;6.00;;;4.57;;
64395;SDS011;50717;53.360;6.290;2022-07-18T13:21:46;6.90;;;4.57;;
64395;SDS011;50717;53.360;6.290;2022-07-18T13:24:13;5.03;;;3.53;;
64395;SDS011;50717;53.360;6.290;2022-07-18T13:26:39;6.20;;;4.45;;
64395;SDS011;50717;53.360;6.290;2022-07-18T13:29:06;9.05;;;4.38;;
64395;SDS011;50717;53.360;6.290;2022-07-18T13:31:32;6.03;;;3.95;;
64395;SDS011;50717;53.360;6.290;2022-07-18T13:33:59;8.15;;;3.90;;
64395;SDS011;50717;53.360;6.290;2022-07-18T13:36:25;7.70;;;4.63;;
64395;SDS011;50717;53.360;6.290;2022-07-18T13:38:50;6.25;;;4.00;;
64395;SDS011;50717;53.360;6.290;2022-07-18T13:41:16;16.27;;;4.28;;
64395;SDS011;50717;53.360;6.290;2022-07-18T13:43:42;9.35;;;3.75;;
64395;SDS011;50717;53.360;6.290;2022-07-18T13:46:08;7.15;;;4.15;;
64395;SDS011;50717;53.360;6.290;2022-07-18T13:48:35;7.07;;;3.97;;
64395;SDS011;50717;53.360;6.290;2022-07-18T13:51:01;6.25;;;3.47;;
64395;SDS011;50717;53.360;6.290;2022-07-18T13:53:27;6.53;;;3.60;;
64395;SDS011;50717;53.360;6.290;2022-07-18T13:55:53;6.18;;;3.53;;
64395;SDS011;50717;53.360;6.290;2022-07-18T13:58:19;6.28;;;3.63;;
64395;SDS011;50717;53.360;6.290;2022-07-18T14:00:45;5.13;;;3.90;;
64395;SDS011;50717;53.360;6.290;2022-07-18T14:03:11;6.50;;;3.75;;
64395;SDS011;50717;53.360;6.290;2022-07-18T14:05:37;7.97;;;3.30;;
64395;SDS011;50717;53.360;6.290;2022-07-18T14:08:04;5.75;;;3.40;;
64395;SDS011;50717;53.360;6.290;2022-07-18T14:10:31;6.40;;;3.45;;
64395;SDS011;50717;53.360;6.290;2022-07-18T14:12:58;5.13;;;3.20;;
64395;SDS011;50717;53.360;6.290;2022-07-18T14:15:24;7.50;;;3.17;;
64395;SDS011;50717;53.360;6.290;2022-07-18T14:17:50;7.60;;;3.50;;
64395;SDS011;50717;53.360;6.290;2022-07-18T14:20:15;4.70;;;2.97;;
64395;SDS011;50717;53.360;6.290;2022-07-18T14:22:42;5.45;;;2.83;;
64395;SDS011;50717;53.360;6.290;2022-07-18T14:25:09;6.05;;;2.60;;
64395;SDS011;50717;53.360;6.290;2022-07-18T14:27:37;4.40;;;3.08;;
64395;SDS011;50717;53.360;6.290;2022-07-18T14:30:04;5.05;;;3.00;;
64395;SDS011;50717;53.360;6.290;2022-07-18T14:32:32;5.78;;;2.92;;
64395;SDS011;50717;53.360;6.290;2022-07-18T14:34:57;6.25;;;3.20;;
64395;SDS011;50717;53.360;6.290;2022-07-18T14:37:23;4.47;;;2.85;;
64395;SDS011;50717;53.360;6.290;2022-07-18T14:39:49;4.85;;;2.83;;
64395;SDS011;50717;53.360;6.290;2022-07-18T14:42:15;5.55;;;3.00;;
64395;SDS011;50717;53.360;6.290;2022-07-18T14:44:40;4.40;;;2.80;;
64395;SDS011;50717;53.360;6.290;2022-07-18T14:47:06;6.38;;;3.33;;
64395;SDS011;50717;53.360;6.290;2022-07-18T14:49:32;5.60;;;3.00;;
64395;SDS011;50717;53.360;6.290;2022-07-18T14:51:57;5.25;;;2.88;;
64395;SDS011;50717;53.360;6.290;2022-07-18T14:54:25;5.97;;;3.40;;
64395;SDS011;50717;53.360;6.290;2022-07-18T14:56:54;4.45;;;3.20;;
64395;SDS011;50717;53.360;6.290;2022-07-18T14:59:20;6.72;;;2.92;;
64395;SDS011;50717;53.360;6.290;2022-07-18T15:01:46;3.97;;;2.80;;
64395;SDS011;50717;53.360;6.290;2022-07-18T15:04:13;3.30;;;2.70;;
64395;SDS011;50717;53.360;6.290;2022-07-18T15:06:39;6.05;;;3.10;;
64395;SDS011;50717;53.360;6.290;2022-07-18T15:09:06;5.95;;;2.83;;
64395;SDS011;50717;53.360;6.290;2022-07-18T15:11:34;4.88;;;3.40;;
64395;SDS011;50717;53.360;6.290;2022-07-18T15:14:00;5.47;;;3.25;;
64395;SDS011;50717;53.360;6.290;2022-07-18T15:16:27;6.15;;;3.20;;
64395;SDS011;50717;53.360;6.290;2022-07-18T15:18:52;4.93;;;3.20;;
64395;SDS011;50717;53.360;6.290;2022-07-18T15:21:18;8.50;;;3.88;;
64395;SDS011;50717;53.360;6.290;2022-07-18T15:23:44;6.15;;;3.35;;
64395;SDS011;50717;53.360;6.290;2022-07-18T15:26:09;3.97;;;3.17;;
64395;SDS011;50717;53.360;6.290;2022-07-18T15:28:35;5.55;;;3.15;;
64395;SDS011;50717;53.360;6.290;2022-07-18T15:31:01;4.20;;;3.42;;
64395;SDS011;50717;53.360;6.290;2022-07-18T15:33:27;6.18;;;3.70;;
64395;SDS011;50717;53.360;6.290;2022-07-18T15:35:52;5.90;;;3.40;;
64395;SDS011;50717;53.360;6.290;2022-07-18T15:38:18;5.15;;;3.63;;
64395;SDS011;50717;53.360;6.290;2022-07-18T15:40:44;4.88;;;3.47;;
64395;SDS011;50717;53.360;6.290;2022-07-18T15:43:10;4.97;;;2.65;;
64395;SDS011;50717;53.360;6.290;2022-07-18T15:45:38;3.92;;;3.10;;
64395;SDS011;50717;53.360;6.290;2022-07-18T15:48:04;4.57;;;3.00;;
64395;SDS011;50717;53.360;6.290;2022-07-18T15:50:30;9.63;;;3.30;;
64395;SDS011;50717;53.360;6.290;2022-07-18T15:52:56;3.78;;;3.13;;
64395;SDS011;50717;53.360;6.290;2022-07-18T15:55:22;4.07;;;3.15;;
64395;SDS011;50717;53.360;6.290;2022-07-18T15:57:48;4.18;;;2.90;;
64395;SDS011;50717;53.360;6.290;2022-07-18T16:00:14;4.00;;;3.08;;
64395;SDS011;50717;53.360;6.290;2022-07-18T16:02:40;7.07;;;3.47;;
64395;SDS011;50717;53.360;6.290;2022-07-18T16:05:05;4.15;;;3.33;;
64395;SDS011;50717;53.360;6.290;2022-07-18T16:07:31;5.47;;;3.08;;
64395;SDS011;50717;53.360;6.290;2022-07-18T16:09:57;3.67;;;3.00;;
64395;SDS011;50717;53.360;6.290;2022-07-18T16:12:23;3.95;;;3.10;;
64395;SDS011;50717;53.360;6.290;2022-07-18T16:14:49;6.30;;;3.15;;
64395;SDS011;50717;53.360;6.290;2022-07-18T16:17:15;3.65;;;3.15;;
64395;SDS011;50717;53.360;6.290;2022-07-18T16:19:40;8.90;;;3.20;;
64395;SDS011;50717;53.360;6.290;2022-07-18T16:22:06;3.65;;;3.28;;
64395;SDS011;50717;53.360;6.290;2022-07-18T16:30:11;4.68;;;3.15;;
64395;SDS011;50717;53.360;6.290;2022-07-18T16:32:37;3.95;;;3.15;;
64395;SDS011;50717;53.360;6.290;2022-07-18T16:35:03;4.82;;;3.25;;
64395;SDS011;50717;53.360;6.290;2022-07-18T16:37:29;5.32;;;3.08;;
64395;SDS011;50717;53.360;6.290;2022-07-18T16:39:54;3.40;;;3.10;;
64395;SDS011;50717;53.360;6.290;2022-07-18T16:42:20;4.32;;;3.30;;
64395;SDS011;50717;53.360;6.290;2022-07-18T16:44:46;4.25;;;3.28;;
64395;SDS011;50717;53.360;6.290;2022-07-18T16:47:12;6.07;;;2.30;;
64395;SDS011;50717;53.360;6.290;2022-07-18T16:49:38;6.95;;;2.30;;
64395;SDS011;50717;53.360;6.290;2022-07-18T16:52:05;3.72;;;2.65;;
64395;SDS011;50717;53.360;6.290;2022-07-18T16:54:31;4.53;;;2.30;;
64395;SDS011;50717;53.360;6.290;2022-07-18T16:56:57;4.72;;;2.40;;
64395;SDS011;50717;53.360;6.290;2022-07-18T16:59:23;3.33;;;2.40;;
64395;SDS011;50717;53.360;6.290;2022-07-18T17:01:49;3.72;;;2.55;;
64395;SDS011;50717;53.360;6.290;2022-07-18T17:04:15;5.85;;;2.63;;
64395;SDS011;50717;53.360;6.290;2022-07-18T17:06:41;3.65;;;2.55;;
64395;SDS011;50717;53.360;6.290;2022-07-18T17:09:07;4.78;;;2.60;;
64395;SDS011;50717;53.360;6.290;2022-07-18T17:11:33;4.53;;;2.33;;
64395;SDS011;50717;53.360;6.290;2022-07-18T17:13:59;5.63;;;2.38;;
64395;SDS011;50717;53.360;6.290;2022-07-18T17:16:25;5.85;;;2.60;;
64395;SDS011;50717;53.360;6.290;2022-07-18T17:18:51;4.13;;;2.60;;
64395;SDS011;50717;53.360;6.290;2022-07-18T17:21:17;5.20;;;2.60;;
64395;SDS011;50717;53.360;6.290;2022-07-18T17:23:43;6.68;;;2.50;;
64395;SDS011;50717;53.360;6.290;2022-07-18T17:26:10;5.13;;;2.70;;
64395;SDS011;50717;53.360;6.290;2022-07-18T17:28:37;4.95;;;2.45;;